sensor_id;sensor_type;location;lat;lon;timestamp;P1;durP1;ratioP1;P2;durP2;ratioP2
75746;SDS011;64363;52.198;21.020;2022-10-31T00:02:22;22.02;;;11.35;;
75746;SDS011;64363;52.198;21.020;2022-10-31T00:04:48;21.08;;;12.05;;
75746;SDS011;64363;52.198;21.020;2022-10-31T00:07:14;21.85;;;13.95;;
75746;SDS011;64363;52.198;21.020;2022-10-31T00:09:39;22.15;;;12.98;;
75746;SDS011;64363;52.198;21.020;2022-10-31T00:12:05;19.13;;;11.38;;
75746;SDS011;64363;52.198;21.020;2022-10-31T00:14:31;23.02;;;13.55;;
75746;SDS011;64363;52.198;21.020;2022-10-31T00:16:56;22.75;;;13.18;;
75746;SDS011;64363;52.198;21.020;2022-10-31T00:19:22;18.90;;;12.25;;
75746;SDS011;64363;52.198;21.020;2022-10-31T00:21:48;21.98;;;13.68;;
75746;SDS011;64363;52.198;21.020;2022-10-31T00:24:13;18.63;;;11.85;;
75746;SDS011;64363;52.198;21.020;2022-10-31T00:26:39;21.05;;;12.63;;
75746;SDS011;64363;52.198;21.020;2022-10-31T00:29:04;22.00;;;12.77;;
75746;SDS011;64363;52.198;21.020;2022-10-31T00:31:30;26.20;;;13.70;;
75746;SDS011;64363;52.198;21.020;2022-10-31T00:33:57;19.75;;;13.70;;
75746;SDS011;64363;52.198;21.020;2022-10-31T00:36:23;23.42;;;12.80;;
75746;SDS011;64363;52.198;21.020;2022-10-31T00:38:49;20.63;;;13.27;;
75746;SDS011;64363;52.198;21.020;2022-10-31T00:41:15;22.58;;;12.80;;
75746;SDS011;64363;52.198;21.020;2022-10-31T00:43:42;20.85;;;12.15;;
75746;SDS011;64363;52.198;21.020;2022-10-31T00:46:09;21.88;;;13.07;;
75746;SDS011;64363;52.198;21.020;2022-10-31T00:48:35;21.60;;;12.85;;
75746;SDS011;64363;52.198;21.020;2022-10-31T00:51:01;20.95;;;13.00;;
75746;SDS011;64363;52.198;21.020;2022-10-31T00:53:27;21.92;;;12.65;;
75746;SDS011;64363;52.198;21.020;2022-10-31T00:55:52;21.15;;;13.20;;
75746;SDS011;64363;52.198;21.020;2022-10-31T00:58:18;20.65;;;12.55;;
75746;SDS011;64363;52.198;21.020;2022-10-31T01:00:44;21.75;;;12.48;;
75746;SDS011;64363;52.198;21.020;2022-10-31T01:03:21;18.67;;;11.45;;
75746;SDS011;64363;52.198;21.020;2022-10-31T01:05:57;21.55;;;12.15;;
75746;SDS011;64363;52.198;21.020;2022-10-31T01:08:27;18.58;;;12.98;;
75746;SDS011;64363;52.198;21.020;2022-10-31T01:11:01;19.65;;;12.32;;
75746;SDS011;64363;52.198;21.020;2022-10-31T01:13:31;21.48;;;12.13;;
75746;SDS011;64363;52.198;21.020;2022-10-31T01:15:58;21.77;;;12.57;;
75746;SDS011;64363;52.198;21.020;2022-10-31T01:18:25;18.90;;;11.45;;
75746;SDS011;64363;52.198;21.020;2022-10-31T01:21:01;21.42;;;12.52;;
75746;SDS011;64363;52.198;21.020;2022-10-31T01:23:31;21.42;;;12.18;;
75746;SDS011;64363;52.198;21.020;2022-10-31T01:28:44;19.08;;;11.55;;
75746;SDS011;64363;52.198;21.020;2022-10-31T01:31:11;19.95;;;11.88;;
75746;SDS011;64363;52.198;21.020;2022-10-31T01:33:38;25.15;;;12.68;;
75746;SDS011;64363;52.198;21.020;2022-10-31T01:38:46;18.58;;;11.32;;
75746;SDS011;64363;52.198;21.020;2022-10-31T01:41:14;21.20;;;12.65;;
75746;SDS011;64363;52.198;21.020;2022-10-31T01:43:53;21.25;;;11.68;;
75746;SDS011;64363;52.198;21.020;2022-10-31T01:49:45;18.48;;;11.70;;
75746;SDS011;64363;52.198;21.020;2022-10-31T01:52:24;20.05;;;12.98;;
75746;SDS011;64363;52.198;21.020;2022-10-31T01:55:03;23.58;;;14.50;;
75746;SDS011;64363;52.198;21.020;2022-10-31T01:57:33;22.88;;;13.38;;
75746;SDS011;64363;52.198;21.020;2022-10-31T02:00:03;27.27;;;13.73;;
75746;SDS011;64363;52.198;21.020;2022-10-31T02:02:31;24.33;;;15.25;;
75746;SDS011;64363;52.198;21.020;2022-10-31T02:04:57;24.92;;;15.30;;
75746;SDS011;64363;52.198;21.020;2022-10-31T02:07:28;23.33;;;14.90;;
75746;SDS011;64363;52.198;21.020;2022-10-31T02:10:00;24.83;;;16.25;;
75746;SDS011;64363;52.198;21.020;2022-10-31T02:12:27;24.83;;;14.95;;
75746;SDS011;64363;52.198;21.020;2022-10-31T02:14:55;29.17;;;16.85;;
75746;SDS011;64363;52.198;21.020;2022-10-31T02:17:21;25.23;;;15.32;;
75746;SDS011;64363;52.198;21.020;2022-10-31T02:25:22;24.40;;;15.75;;
75746;SDS011;64363;52.198;21.020;2022-10-31T02:33:15;25.88;;;17.05;;
75746;SDS011;64363;52.198;21.020;2022-10-31T02:35:50;31.92;;;17.40;;
75746;SDS011;64363;52.198;21.020;2022-10-31T02:38:42;28.45;;;17.20;;
75746;SDS011;64363;52.198;21.020;2022-10-31T02:47:06;30.27;;;18.05;;
75746;SDS011;64363;52.198;21.020;2022-10-31T02:52:29;29.65;;;18.23;;
75746;SDS011;64363;52.198;21.020;2022-10-31T02:54:56;27.77;;;18.65;;
75746;SDS011;64363;52.198;21.020;2022-10-31T02:57:27;29.95;;;20.30;;
75746;SDS011;64363;52.198;21.020;2022-10-31T03:00:06;29.25;;;18.13;;
75746;SDS011;64363;52.198;21.020;2022-10-31T03:08:32;31.38;;;17.58;;
75746;SDS011;64363;52.198;21.020;2022-10-31T03:11:01;27.30;;;16.15;;
75746;SDS011;64363;52.198;21.020;2022-10-31T03:18:33;31.15;;;17.42;;
75746;SDS011;64363;52.198;21.020;2022-10-31T03:21:05;29.50;;;18.48;;
75746;SDS011;64363;52.198;21.020;2022-10-31T03:23:37;29.73;;;18.13;;
75746;SDS011;64363;52.198;21.020;2022-10-31T03:26:06;27.98;;;17.63;;
75746;SDS011;64363;52.198;21.020;2022-10-31T03:28:35;26.38;;;17.13;;
75746;SDS011;64363;52.198;21.020;2022-10-31T03:31:09;25.65;;;16.02;;
75746;SDS011;64363;52.198;21.020;2022-10-31T03:33:37;28.40;;;16.75;;
75746;SDS011;64363;52.198;21.020;2022-10-31T03:36:05;29.17;;;17.27;;
75746;SDS011;64363;52.198;21.020;2022-10-31T03:38:36;25.50;;;16.92;;
75746;SDS011;64363;52.198;21.020;2022-10-31T03:41:03;25.10;;;16.55;;
75746;SDS011;64363;52.198;21.020;2022-10-31T03:43:35;28.23;;;16.88;;
75746;SDS011;64363;52.198;21.020;2022-10-31T03:46:05;26.75;;;16.45;;
75746;SDS011;64363;52.198;21.020;2022-10-31T03:48:31;26.13;;;17.70;;
75746;SDS011;64363;52.198;21.020;2022-10-31T03:53:46;25.98;;;17.40;;
75746;SDS011;64363;52.198;21.020;2022-10-31T03:58:54;29.33;;;16.85;;
75746;SDS011;64363;52.198;21.020;2022-10-31T04:01:28;24.48;;;16.05;;
75746;SDS011;64363;52.198;21.020;2022-10-31T04:03:56;25.88;;;16.42;;
75746;SDS011;64363;52.198;21.020;2022-10-31T04:06:22;26.75;;;17.77;;
75746;SDS011;64363;52.198;21.020;2022-10-31T04:08:57;30.23;;;18.55;;
75746;SDS011;64363;52.198;21.020;2022-10-31T04:11:29;27.67;;;17.08;;
75746;SDS011;64363;52.198;21.020;2022-10-31T04:13:58;27.58;;;16.60;;
75746;SDS011;64363;52.198;21.020;2022-10-31T04:16:26;28.38;;;17.65;;
75746;SDS011;64363;52.198;21.020;2022-10-31T04:18:52;29.05;;;18.83;;
75746;SDS011;64363;52.198;21.020;2022-10-31T04:21:18;30.33;;;17.58;;
75746;SDS011;64363;52.198;21.020;2022-10-31T04:23:44;28.90;;;18.52;;
75746;SDS011;64363;52.198;21.020;2022-10-31T04:26:10;27.35;;;17.50;;
75746;SDS011;64363;52.198;21.020;2022-10-31T04:28:37;30.52;;;20.10;;
75746;SDS011;64363;52.198;21.020;2022-10-31T04:31:03;27.58;;;17.75;;
75746;SDS011;64363;52.198;21.020;2022-10-31T04:33:29;30.40;;;17.45;;
75746;SDS011;64363;52.198;21.020;2022-10-31T04:35:54;25.75;;;15.75;;
75746;SDS011;64363;52.198;21.020;2022-10-31T04:38:20;25.63;;;17.08;;
75746;SDS011;64363;52.198;21.020;2022-10-31T04:40:46;28.48;;;16.83;;
75746;SDS011;64363;52.198;21.020;2022-10-31T04:43:11;29.40;;;17.65;;
75746;SDS011;64363;52.198;21.020;2022-10-31T04:45:37;30.25;;;18.35;;
75746;SDS011;64363;52.198;21.020;2022-10-31T04:48:03;30.95;;;18.08;;
75746;SDS011;64363;52.198;21.020;2022-10-31T04:50:29;28.63;;;18.20;;
75746;SDS011;64363;52.198;21.020;2022-10-31T04:52:55;30.83;;;16.98;;
75746;SDS011;64363;52.198;21.020;2022-10-31T04:55:20;27.77;;;16.70;;
75746;SDS011;64363;52.198;21.020;2022-10-31T04:57:47;29.65;;;17.38;;
75746;SDS011;64363;52.198;21.020;2022-10-31T05:00:15;29.85;;;17.58;;
75746;SDS011;64363;52.198;21.020;2022-10-31T05:02:46;26.58;;;17.25;;
75746;SDS011;64363;52.198;21.020;2022-10-31T05:05:16;25.95;;;17.20;;
75746;SDS011;64363;52.198;21.020;2022-10-31T05:07:44;26.23;;;16.00;;
75746;SDS011;64363;52.198;21.020;2022-10-31T05:10:12;26.77;;;17.38;;
75746;SDS011;64363;52.198;21.020;2022-10-31T05:12:46;30.10;;;16.27;;
75746;SDS011;64363;52.198;21.020;2022-10-31T05:15:19;27.85;;;17.30;;
75746;SDS011;64363;52.198;21.020;2022-10-31T05:17:47;25.77;;;16.48;;
75746;SDS011;64363;52.198;21.020;2022-10-31T05:20:13;30.77;;;18.20;;
75746;SDS011;64363;52.198;21.020;2022-10-31T05:22:47;27.38;;;17.58;;
75746;SDS011;64363;52.198;21.020;2022-10-31T05:25:14;25.48;;;16.42;;
75746;SDS011;64363;52.198;21.020;2022-10-31T05:27:41;26.42;;;17.00;;
75746;SDS011;64363;52.198;21.020;2022-10-31T05:30:09;29.45;;;16.50;;
75746;SDS011;64363;52.198;21.020;2022-10-31T05:32:37;27.25;;;17.70;;
75746;SDS011;64363;52.198;21.020;2022-10-31T05:35:09;28.30;;;17.92;;
75746;SDS011;64363;52.198;21.020;2022-10-31T05:37:37;30.10;;;19.92;;
75746;SDS011;64363;52.198;21.020;2022-10-31T05:40:03;30.88;;;20.23;;
75746;SDS011;64363;52.198;21.020;2022-10-31T05:42:31;25.20;;;17.73;;
75746;SDS011;64363;52.198;21.020;2022-10-31T05:44:57;30.75;;;18.50;;
75746;SDS011;64363;52.198;21.020;2022-10-31T05:47:22;28.95;;;18.13;;
75746;SDS011;64363;52.198;21.020;2022-10-31T05:49:48;28.40;;;18.73;;
75746;SDS011;64363;52.198;21.020;2022-10-31T05:52:14;30.45;;;18.77;;
75746;SDS011;64363;52.198;21.020;2022-10-31T05:54:40;28.88;;;18.85;;
75746;SDS011;64363;52.198;21.020;2022-10-31T05:57:06;31.85;;;19.40;;
75746;SDS011;64363;52.198;21.020;2022-10-31T05:59:32;31.98;;;19.35;;
75746;SDS011;64363;52.198;21.020;2022-10-31T06:02:05;33.13;;;21.35;;
75746;SDS011;64363;52.198;21.020;2022-10-31T06:04:31;32.00;;;20.08;;
75746;SDS011;64363;52.198;21.020;2022-10-31T06:06:56;32.28;;;19.35;;
75746;SDS011;64363;52.198;21.020;2022-10-31T06:09:22;28.63;;;18.98;;
75746;SDS011;64363;52.198;21.020;2022-10-31T06:11:48;32.95;;;21.05;;
75746;SDS011;64363;52.198;21.020;2022-10-31T06:14:14;32.55;;;19.48;;
75746;SDS011;64363;52.198;21.020;2022-10-31T06:16:39;32.17;;;20.52;;
75746;SDS011;64363;52.198;21.020;2022-10-31T06:19:05;33.35;;;20.60;;
75746;SDS011;64363;52.198;21.020;2022-10-31T06:21:31;35.58;;;20.73;;
75746;SDS011;64363;52.198;21.020;2022-10-31T06:23:57;35.90;;;20.08;;
75746;SDS011;64363;52.198;21.020;2022-10-31T06:26:22;37.13;;;21.48;;
75746;SDS011;64363;52.198;21.020;2022-10-31T06:28:48;38.25;;;22.20;;
75746;SDS011;64363;52.198;21.020;2022-10-31T06:31:14;38.40;;;23.20;;
75746;SDS011;64363;52.198;21.020;2022-10-31T06:33:43;38.08;;;21.98;;
75746;SDS011;64363;52.198;21.020;2022-10-31T06:36:09;41.47;;;22.48;;
75746;SDS011;64363;52.198;21.020;2022-10-31T06:38:35;38.38;;;23.45;;
75746;SDS011;64363;52.198;21.020;2022-10-31T06:41:04;40.22;;;22.00;;
75746;SDS011;64363;52.198;21.020;2022-10-31T06:43:31;38.17;;;20.67;;
75746;SDS011;64363;52.198;21.020;2022-10-31T06:45:57;41.55;;;20.65;;
75746;SDS011;64363;52.198;21.020;2022-10-31T06:48:23;38.20;;;20.63;;
75746;SDS011;64363;52.198;21.020;2022-10-31T06:50:49;37.13;;;20.92;;
75746;SDS011;64363;52.198;21.020;2022-10-31T06:53:15;37.65;;;20.27;;
75746;SDS011;64363;52.198;21.020;2022-10-31T06:55:41;42.67;;;21.55;;
75746;SDS011;64363;52.198;21.020;2022-10-31T06:58:08;36.53;;;19.60;;
75746;SDS011;64363;52.198;21.020;2022-10-31T07:00:35;38.20;;;20.38;;
75746;SDS011;64363;52.198;21.020;2022-10-31T07:03:02;37.58;;;18.75;;
75746;SDS011;64363;52.198;21.020;2022-10-31T07:05:30;30.77;;;18.77;;
75746;SDS011;64363;52.198;21.020;2022-10-31T07:07:56;35.75;;;17.95;;
75746;SDS011;64363;52.198;21.020;2022-10-31T07:10:27;31.88;;;18.25;;
75746;SDS011;64363;52.198;21.020;2022-10-31T07:12:55;34.90;;;18.15;;
75746;SDS011;64363;52.198;21.020;2022-10-31T07:15:22;30.40;;;18.52;;
75746;SDS011;64363;52.198;21.020;2022-10-31T07:17:48;31.45;;;18.80;;
75746;SDS011;64363;52.198;21.020;2022-10-31T07:20:14;32.42;;;17.52;;
75746;SDS011;64363;52.198;21.020;2022-10-31T07:22:40;30.10;;;15.88;;
75746;SDS011;64363;52.198;21.020;2022-10-31T07:25:05;30.77;;;17.88;;
75746;SDS011;64363;52.198;21.020;2022-10-31T07:27:38;30.05;;;17.35;;
75746;SDS011;64363;52.198;21.020;2022-10-31T07:30:07;29.80;;;17.23;;
75746;SDS011;64363;52.198;21.020;2022-10-31T07:32:38;29.23;;;16.90;;
75746;SDS011;64363;52.198;21.020;2022-10-31T07:35:08;32.35;;;17.90;;
75746;SDS011;64363;52.198;21.020;2022-10-31T07:37:35;35.08;;;19.17;;
75746;SDS011;64363;52.198;21.020;2022-10-31T07:40:01;33.15;;;18.10;;
75746;SDS011;64363;52.198;21.020;2022-10-31T07:42:28;27.95;;;17.42;;
75746;SDS011;64363;52.198;21.020;2022-10-31T07:44:54;32.85;;;18.40;;
75746;SDS011;64363;52.198;21.020;2022-10-31T07:47:19;30.23;;;18.60;;
75746;SDS011;64363;52.198;21.020;2022-10-31T07:49:45;35.17;;;18.10;;
75746;SDS011;64363;52.198;21.020;2022-10-31T07:52:11;31.48;;;17.50;;
75746;SDS011;64363;52.198;21.020;2022-10-31T07:54:36;28.55;;;15.65;;
75746;SDS011;64363;52.198;21.020;2022-10-31T07:57:02;29.80;;;16.95;;
75746;SDS011;64363;52.198;21.020;2022-10-31T07:59:28;30.50;;;18.17;;
75746;SDS011;64363;52.198;21.020;2022-10-31T08:01:53;25.58;;;16.45;;
75746;SDS011;64363;52.198;21.020;2022-10-31T08:04:19;23.77;;;15.32;;
75746;SDS011;64363;52.198;21.020;2022-10-31T08:06:45;30.15;;;16.45;;
75746;SDS011;64363;52.198;21.020;2022-10-31T08:09:10;33.05;;;19.02;;
75746;SDS011;64363;52.198;21.020;2022-10-31T08:11:36;33.60;;;19.65;;
75746;SDS011;64363;52.198;21.020;2022-10-31T08:14:02;33.88;;;19.00;;
75746;SDS011;64363;52.198;21.020;2022-10-31T08:16:27;29.25;;;17.55;;
75746;SDS011;64363;52.198;21.020;2022-10-31T08:18:53;36.03;;;20.50;;
75746;SDS011;64363;52.198;21.020;2022-10-31T08:21:21;36.42;;;18.70;;
75746;SDS011;64363;52.198;21.020;2022-10-31T08:23:47;35.72;;;17.35;;
75746;SDS011;64363;52.198;21.020;2022-10-31T08:26:13;26.02;;;15.63;;
75746;SDS011;64363;52.198;21.020;2022-10-31T08:28:38;28.05;;;16.65;;
75746;SDS011;64363;52.198;21.020;2022-10-31T08:31:04;27.55;;;15.90;;
75746;SDS011;64363;52.198;21.020;2022-10-31T08:33:31;26.70;;;15.25;;
75746;SDS011;64363;52.198;21.020;2022-10-31T08:35:59;26.27;;;14.70;;
75746;SDS011;64363;52.198;21.020;2022-10-31T08:38:25;29.55;;;16.40;;
75746;SDS011;64363;52.198;21.020;2022-10-31T08:40:51;28.38;;;17.30;;
75746;SDS011;64363;52.198;21.020;2022-10-31T08:43:17;29.55;;;15.80;;
75746;SDS011;64363;52.198;21.020;2022-10-31T08:45:44;26.23;;;15.82;;
75746;SDS011;64363;52.198;21.020;2022-10-31T08:48:14;27.42;;;16.35;;
75746;SDS011;64363;52.198;21.020;2022-10-31T08:50:41;29.80;;;15.60;;
75746;SDS011;64363;52.198;21.020;2022-10-31T08:53:09;27.73;;;16.08;;
75746;SDS011;64363;52.198;21.020;2022-10-31T08:55:37;26.17;;;14.93;;
75746;SDS011;64363;52.198;21.020;2022-10-31T08:58:05;32.63;;;16.30;;
75746;SDS011;64363;52.198;21.020;2022-10-31T09:00:33;28.88;;;18.52;;
75746;SDS011;64363;52.198;21.020;2022-10-31T09:03:00;25.40;;;15.25;;
75746;SDS011;64363;52.198;21.020;2022-10-31T09:05:27;24.83;;;14.57;;
75746;SDS011;64363;52.198;21.020;2022-10-31T09:07:56;27.83;;;15.02;;
75746;SDS011;64363;52.198;21.020;2022-10-31T09:10:26;27.48;;;14.48;;
75746;SDS011;64363;52.198;21.020;2022-10-31T09:13:00;27.15;;;15.60;;
75746;SDS011;64363;52.198;21.020;2022-10-31T09:15:29;26.27;;;13.68;;
75746;SDS011;64363;52.198;21.020;2022-10-31T09:17:55;28.40;;;14.07;;
75746;SDS011;64363;52.198;21.020;2022-10-31T09:20:21;23.88;;;13.77;;
75746;SDS011;64363;52.198;21.020;2022-10-31T09:22:47;23.48;;;13.73;;
75746;SDS011;64363;52.198;21.020;2022-10-31T09:25:13;26.15;;;15.45;;
75746;SDS011;64363;52.198;21.020;2022-10-31T09:27:39;22.95;;;13.88;;
75746;SDS011;64363;52.198;21.020;2022-10-31T09:30:05;21.95;;;12.60;;
75746;SDS011;64363;52.198;21.020;2022-10-31T09:32:31;26.73;;;15.23;;
75746;SDS011;64363;52.198;21.020;2022-10-31T09:34:56;22.63;;;14.07;;
75746;SDS011;64363;52.198;21.020;2022-10-31T09:37:22;26.05;;;15.30;;
75746;SDS011;64363;52.198;21.020;2022-10-31T09:39:48;23.67;;;14.38;;
75746;SDS011;64363;52.198;21.020;2022-10-31T09:45:16;25.65;;;15.02;;
75746;SDS011;64363;52.198;21.020;2022-10-31T09:47:50;23.08;;;14.20;;
75746;SDS011;64363;52.198;21.020;2022-10-31T09:50:26;24.02;;;14.38;;
75746;SDS011;64363;52.198;21.020;2022-10-31T09:53:07;27.55;;;16.40;;
75746;SDS011;64363;52.198;21.020;2022-10-31T09:55:40;26.80;;;16.75;;
75746;SDS011;64363;52.198;21.020;2022-10-31T09:58:13;25.75;;;16.33;;
75746;SDS011;64363;52.198;21.020;2022-10-31T10:00:43;22.38;;;14.77;;
75746;SDS011;64363;52.198;21.020;2022-10-31T10:05:53;20.98;;;14.93;;
75746;SDS011;64363;52.198;21.020;2022-10-31T10:08:28;23.33;;;14.88;;
75746;SDS011;64363;52.198;21.020;2022-10-31T10:11:08;25.77;;;16.88;;
75746;SDS011;64363;52.198;21.020;2022-10-31T10:21:42;30.27;;;18.63;;
75746;SDS011;64363;52.198;21.020;2022-10-31T12:39:02;20.63;;;12.73;;
75746;SDS011;64363;52.198;21.020;2022-10-31T12:41:36;22.27;;;12.55;;
75746;SDS011;64363;52.198;21.020;2022-10-31T12:50:11;24.60;;;15.27;;
75746;SDS011;64363;52.198;21.020;2022-10-31T12:59:50;30.27;;;16.55;;
75746;SDS011;64363;52.198;21.020;2022-10-31T13:01:59;24.90;;;15.05;;
75746;SDS011;64363;52.198;21.020;2022-10-31T13:04:38;28.55;;;15.30;;
75746;SDS011;64363;52.198;21.020;2022-10-31T13:07:15;28.52;;;15.60;;
75746;SDS011;64363;52.198;21.020;2022-10-31T13:10:18;27.08;;;15.80;;
75746;SDS011;64363;52.198;21.020;2022-10-31T13:12:46;28.83;;;15.63;;
75746;SDS011;64363;52.198;21.020;2022-10-31T13:17:49;28.05;;;16.17;;
75746;SDS011;64363;52.198;21.020;2022-10-31T13:20:52;28.52;;;15.93;;
75746;SDS011;64363;52.198;21.020;2022-10-31T13:23:19;24.88;;;15.50;;
75746;SDS011;64363;52.198;21.020;2022-10-31T13:25:58;28.33;;;15.07;;
75746;SDS011;64363;52.198;21.020;2022-10-31T13:28:31;26.05;;;16.08;;
75746;SDS011;64363;52.198;21.020;2022-10-31T13:31:03;29.88;;;17.17;;
75746;SDS011;64363;52.198;21.020;2022-10-31T13:33:30;26.63;;;17.20;;
75746;SDS011;64363;52.198;21.020;2022-10-31T13:38:47;25.48;;;15.63;;
75746;SDS011;64363;52.198;21.020;2022-10-31T13:41:34;24.17;;;15.88;;
75746;SDS011;64363;52.198;21.020;2022-10-31T13:44:28;25.55;;;16.63;;
75746;SDS011;64363;52.198;21.020;2022-10-31T13:46:56;24.55;;;16.23;;
75746;SDS011;64363;52.198;21.020;2022-10-31T13:54:37;27.38;;;17.70;;
75746;SDS011;64363;52.198;21.020;2022-10-31T13:57:18;28.23;;;17.88;;
75746;SDS011;64363;52.198;21.020;2022-10-31T13:59:58;28.33;;;17.52;;
75746;SDS011;64363;52.198;21.020;2022-10-31T14:02:26;28.55;;;16.40;;
75746;SDS011;64363;52.198;21.020;2022-10-31T14:05:05;31.85;;;18.42;;
75746;SDS011;64363;52.198;21.020;2022-10-31T14:07:43;30.13;;;19.08;;
75746;SDS011;64363;52.198;21.020;2022-10-31T14:10:21;29.35;;;17.13;;
75746;SDS011;64363;52.198;21.020;2022-10-31T14:13:08;28.05;;;17.55;;
75746;SDS011;64363;52.198;21.020;2022-10-31T14:15:38;29.13;;;18.63;;
75746;SDS011;64363;52.198;21.020;2022-10-31T14:18:21;31.38;;;17.88;;
75746;SDS011;64363;52.198;21.020;2022-10-31T14:20:50;36.17;;;18.35;;
75746;SDS011;64363;52.198;21.020;2022-10-31T14:28:49;32.88;;;19.27;;
75746;SDS011;64363;52.198;21.020;2022-10-31T14:34:01;36.88;;;19.10;;
75746;SDS011;64363;52.198;21.020;2022-10-31T14:39:35;34.95;;;18.20;;
75746;SDS011;64363;52.198;21.020;2022-10-31T14:42:22;32.30;;;18.23;;
75746;SDS011;64363;52.198;21.020;2022-10-31T14:50:47;35.50;;;17.63;;
75746;SDS011;64363;52.198;21.020;2022-10-31T14:55:53;35.53;;;17.02;;
75746;SDS011;64363;52.198;21.020;2022-10-31T14:58:22;39.70;;;17.63;;
75746;SDS011;64363;52.198;21.020;2022-10-31T15:00:52;42.38;;;18.65;;
75746;SDS011;64363;52.198;21.020;2022-10-31T15:05:57;39.17;;;19.05;;
75746;SDS011;64363;52.198;21.020;2022-10-31T15:08:32;40.72;;;18.25;;
75746;SDS011;64363;52.198;21.020;2022-10-31T15:11:19;42.97;;;19.90;;
75746;SDS011;64363;52.198;21.020;2022-10-31T15:16:30;37.92;;;16.73;;
75746;SDS011;64363;52.198;21.020;2022-10-31T15:19:02;39.67;;;18.50;;
75746;SDS011;64363;52.198;21.020;2022-10-31T15:21:33;42.58;;;19.42;;
75746;SDS011;64363;52.198;21.020;2022-10-31T15:24:01;45.40;;;19.55;;
75746;SDS011;64363;52.198;21.020;2022-10-31T15:26:38;47.63;;;20.15;;
75746;SDS011;64363;52.198;21.020;2022-10-31T15:29:12;45.83;;;19.65;;
75746;SDS011;64363;52.198;21.020;2022-10-31T15:31:48;41.75;;;18.35;;
75746;SDS011;64363;52.198;21.020;2022-10-31T15:34:18;43.85;;;19.67;;
75746;SDS011;64363;52.198;21.020;2022-10-31T15:36:47;44.47;;;19.45;;
75746;SDS011;64363;52.198;21.020;2022-10-31T15:39:15;44.83;;;22.63;;
75746;SDS011;64363;52.198;21.020;2022-10-31T15:44:15;57.97;;;24.50;;
75746;SDS011;64363;52.198;21.020;2022-10-31T15:46:56;52.92;;;22.45;;
75746;SDS011;64363;52.198;21.020;2022-10-31T15:49:40;47.47;;;22.08;;
75746;SDS011;64363;52.198;21.020;2022-10-31T15:54:53;55.55;;;21.83;;
75746;SDS011;64363;52.198;21.020;2022-10-31T15:57:21;48.70;;;20.52;;
75746;SDS011;64363;52.198;21.020;2022-10-31T15:59:48;54.03;;;21.60;;
75746;SDS011;64363;52.198;21.020;2022-10-31T16:02:18;50.92;;;21.63;;
75746;SDS011;64363;52.198;21.020;2022-10-31T16:04:59;54.25;;;22.48;;
75746;SDS011;64363;52.198;21.020;2022-10-31T16:07:26;51.60;;;22.02;;
75746;SDS011;64363;52.198;21.020;2022-10-31T16:09:59;56.35;;;23.60;;
75746;SDS011;64363;52.198;21.020;2022-10-31T16:12:36;46.50;;;21.73;;
75746;SDS011;64363;52.198;21.020;2022-10-31T16:15:03;51.75;;;21.15;;
75746;SDS011;64363;52.198;21.020;2022-10-31T16:17:30;52.45;;;21.17;;
75746;SDS011;64363;52.198;21.020;2022-10-31T16:19:58;44.40;;;19.95;;
75746;SDS011;64363;52.198;21.020;2022-10-31T16:22:27;47.97;;;20.35;;
75746;SDS011;64363;52.198;21.020;2022-10-31T16:24:56;44.60;;;20.85;;
75746;SDS011;64363;52.198;21.020;2022-10-31T16:27:24;46.22;;;21.77;;
75746;SDS011;64363;52.198;21.020;2022-10-31T16:29:54;46.13;;;20.10;;
75746;SDS011;64363;52.198;21.020;2022-10-31T16:34:59;44.60;;;19.92;;
75746;SDS011;64363;52.198;21.020;2022-10-31T16:37:38;44.60;;;20.83;;
75746;SDS011;64363;52.198;21.020;2022-10-31T16:40:08;53.83;;;20.15;;
75746;SDS011;64363;52.198;21.020;2022-10-31T16:42:35;47.45;;;19.83;;
75746;SDS011;64363;52.198;21.020;2022-10-31T16:45:01;51.92;;;20.33;;
75746;SDS011;64363;52.198;21.020;2022-10-31T16:47:27;51.28;;;22.25;;
75746;SDS011;64363;52.198;21.020;2022-10-31T16:49:53;47.20;;;20.70;;
75746;SDS011;64363;52.198;21.020;2022-10-31T16:52:18;46.95;;;20.20;;
75746;SDS011;64363;52.198;21.020;2022-10-31T16:54:44;49.15;;;20.13;;
75746;SDS011;64363;52.198;21.020;2022-10-31T16:57:12;43.47;;;19.30;;
75746;SDS011;64363;52.198;21.020;2022-10-31T16:59:41;46.20;;;19.95;;
75746;SDS011;64363;52.198;21.020;2022-10-31T17:02:09;50.03;;;20.95;;
75746;SDS011;64363;52.198;21.020;2022-10-31T17:04:39;55.13;;;20.23;;
75746;SDS011;64363;52.198;21.020;2022-10-31T17:07:05;47.22;;;19.23;;
75746;SDS011;64363;52.198;21.020;2022-10-31T17:09:30;53.45;;;20.42;;
75746;SDS011;64363;52.198;21.020;2022-10-31T17:11:56;47.20;;;21.20;;
75746;SDS011;64363;52.198;21.020;2022-10-31T17:14:23;52.92;;;21.80;;
75746;SDS011;64363;52.198;21.020;2022-10-31T17:16:49;48.95;;;20.27;;
75746;SDS011;64363;52.198;21.020;2022-10-31T17:19:14;49.90;;;21.27;;
75746;SDS011;64363;52.198;21.020;2022-10-31T17:21:40;61.90;;;23.77;;
75746;SDS011;64363;52.198;21.020;2022-10-31T17:24:07;62.58;;;24.65;;
75746;SDS011;64363;52.198;21.020;2022-10-31T17:26:37;54.50;;;22.65;;
75746;SDS011;64363;52.198;21.020;2022-10-31T17:29:03;60.88;;;23.00;;
75746;SDS011;64363;52.198;21.020;2022-10-31T17:31:29;61.60;;;23.13;;
75746;SDS011;64363;52.198;21.020;2022-10-31T17:33:59;60.60;;;22.30;;
75746;SDS011;64363;52.198;21.020;2022-10-31T17:36:25;56.60;;;21.77;;
75746;SDS011;64363;52.198;21.020;2022-10-31T17:38:51;53.03;;;21.77;;
75746;SDS011;64363;52.198;21.020;2022-10-31T17:41:16;63.38;;;23.33;;
75746;SDS011;64363;52.198;21.020;2022-10-31T17:43:42;61.88;;;22.63;;
75746;SDS011;64363;52.198;21.020;2022-10-31T17:46:08;53.70;;;21.25;;
75746;SDS011;64363;52.198;21.020;2022-10-31T17:48:34;58.05;;;20.95;;
75746;SDS011;64363;52.198;21.020;2022-10-31T17:51:01;60.10;;;23.35;;
75746;SDS011;64363;52.198;21.020;2022-10-31T17:53:29;61.85;;;21.55;;
75746;SDS011;64363;52.198;21.020;2022-10-31T17:55:59;59.67;;;21.40;;
75746;SDS011;64363;52.198;21.020;2022-10-31T17:58:26;54.10;;;21.30;;
75746;SDS011;64363;52.198;21.020;2022-10-31T18:00:52;58.38;;;23.30;;
75746;SDS011;64363;52.198;21.020;2022-10-31T18:03:18;55.17;;;23.35;;
75746;SDS011;64363;52.198;21.020;2022-10-31T18:05:55;54.35;;;22.33;;
75746;SDS011;64363;52.198;21.020;2022-10-31T18:08:28;56.10;;;22.15;;
75746;SDS011;64363;52.198;21.020;2022-10-31T18:10:56;54.67;;;22.48;;
75746;SDS011;64363;52.198;21.020;2022-10-31T18:13:26;53.38;;;20.88;;
75746;SDS011;64363;52.198;21.020;2022-10-31T18:15:52;55.33;;;21.52;;
75746;SDS011;64363;52.198;21.020;2022-10-31T18:18:19;48.58;;;20.40;;
75746;SDS011;64363;52.198;21.020;2022-10-31T18:20:45;55.50;;;21.98;;
75746;SDS011;64363;52.198;21.020;2022-10-31T18:23:11;57.53;;;22.65;;
75746;SDS011;64363;52.198;21.020;2022-10-31T18:25:37;53.78;;;22.33;;
75746;SDS011;64363;52.198;21.020;2022-10-31T18:28:05;55.08;;;21.30;;
75746;SDS011;64363;52.198;21.020;2022-10-31T18:30:31;53.65;;;22.08;;